createdAt,value
2016-02-12T00:00:49.615Z,0
2016-02-12T00:01:49.586Z,0
2016-02-12T00:02:49.573Z,0
2016-02-12T00:03:49.529Z,0
2016-02-12T00:04:49.516Z,0
2016-02-12T00:05:49.473Z,0
2016-02-12T00:06:49.443Z,0
2016-02-12T00:07:49.399Z,0
2016-02-12T00:08:49.388Z,0
2016-02-12T00:09:49.374Z,0
2016-02-12T00:10:49.322Z,0
2016-02-12T00:11:49.326Z,0
2016-02-12T00:12:49.268Z,0
2016-02-12T00:13:49.254Z,0
2016-02-12T00:14:49.210Z,0
2016-02-12T00:15:49.181Z,0
2016-02-12T00:16:49.154Z,0
2016-02-12T00:17:49.125Z,0
2016-02-12T00:18:49.096Z,0
2016-02-12T00:19:49.069Z,0
2016-02-12T00:20:49.040Z,0
2016-02-12T00:21:49.027Z,0
2016-02-12T00:22:48.982Z,0
2016-02-12T00:23:48.929Z,0
2016-02-12T00:24:48.904Z,0
2016-02-12T00:25:48.863Z,0
2016-02-12T00:26:48.822Z,0
2016-02-12T00:27:48.782Z,0
2016-02-12T00:28:48.744Z,0
2016-02-12T00:29:48.727Z,0
2016-02-12T00:30:48.679Z,0
2016-02-12T00:31:48.662Z,0
2016-02-12T00:32:48.613Z,0
2016-02-12T00:33:48.583Z,0
2016-02-12T00:34:48.569Z,0
2016-02-12T00:35:48.508Z,0
2016-02-12T00:36:48.494Z,0
2016-02-12T00:37:48.482Z,0
2016-02-12T00:38:48.422Z,0
2016-02-12T00:39:48.407Z,0
2016-02-12T00:40:48.363Z,0
2016-02-12T00:41:48.333Z,0
2016-02-12T00:42:48.318Z,0
2016-02-12T00:43:48.288Z,0
2016-02-12T00:44:48.260Z,0
2016-02-12T00:45:48.216Z,0
2016-02-12T00:46:48.202Z,0
2016-02-12T00:47:48.158Z,0
2016-02-12T00:48:48.129Z,0
2016-02-12T00:49:48.117Z,0
2016-02-12T00:50:48.073Z,0
2016-02-12T00:51:48.059Z,0
2016-02-12T00:52:48.015Z,0
2016-02-12T00:53:47.987Z,0
2016-02-12T00:54:47.959Z,0
2016-02-12T00:55:47.931Z,0
2016-02-12T00:56:47.918Z,0
2016-02-12T00:57:47.873Z,0
2016-02-12T00:58:47.861Z,0
2016-02-12T00:59:47.817Z,0
2016-02-12T01:00:47.804Z,0
2016-02-12T01:01:47.760Z,0
2016-02-12T01:02:47.740Z,0
2016-02-12T01:03:47.711Z,0
2016-02-12T01:04:47.698Z,0
2016-02-12T01:05:47.638Z,0
2016-02-12T01:06:47.610Z,0
2016-02-12T01:07:47.581Z,0
2016-02-12T01:08:47.568Z,0
2016-02-12T01:09:47.524Z,0
2016-02-12T01:10:47.496Z,0
2016-02-12T01:11:47.485Z,0
2016-02-12T01:12:47.522Z,0
2016-02-12T01:13:47.432Z,0
2016-02-12T01:14:47.388Z,0
2016-02-12T01:15:47.374Z,0
2016-02-12T01:16:47.330Z,0
2016-02-12T01:17:47.317Z,0
2016-02-12T01:18:47.273Z,0
2016-02-12T01:19:47.246Z,0
2016-02-12T01:20:47.232Z,0
2016-02-12T01:21:47.204Z,0
2016-02-12T01:22:47.175Z,0
2016-02-12T01:23:47.132Z,0
2016-02-12T01:24:47.118Z,0
2016-02-12T01:25:47.074Z,0
2016-02-12T01:26:47.060Z,0
2016-02-12T01:27:47.029Z,0
2016-02-12T01:28:47.001Z,0
2016-02-12T01:29:46.973Z,0
2016-02-12T01:30:46.944Z,0
2016-02-12T01:31:46.916Z,0
2016-02-12T01:32:46.872Z,0
2016-02-12T01:33:46.875Z,0
2016-02-12T01:34:46.830Z,0
2016-02-12T01:35:46.819Z,0
2016-02-12T01:36:46.775Z,0
2016-02-12T01:37:46.589Z,0
2016-02-12T01:38:46.717Z,0
2016-02-12T01:39:46.708Z,0
2016-02-12T01:40:46.664Z,0
2016-02-12T01:41:46.650Z,0
2016-02-12T01:42:46.606Z,0
2016-02-12T01:43:46.581Z,0
2016-02-12T01:44:46.567Z,0
2016-02-12T01:45:46.539Z,0
2016-02-12T01:46:46.511Z,0
2016-02-12T01:47:46.467Z,0
2016-02-12T01:48:46.439Z,0
2016-02-12T01:49:46.411Z,0
2016-02-12T01:50:46.381Z,0
2016-02-12T01:51:46.212Z,0
2016-02-12T01:52:46.325Z,0
2016-02-12T01:53:46.311Z,0
2016-02-12T01:54:46.299Z,0
2016-02-12T01:55:46.239Z,0
2016-02-12T01:56:46.225Z,0
2016-02-12T01:57:46.183Z,0
2016-02-12T01:58:46.170Z,0
2016-02-12T01:59:46.156Z,0
2016-02-12T02:00:46.112Z,0
2016-02-12T02:01:46.100Z,0
2016-02-12T02:02:46.071Z,0
2016-02-12T02:03:46.027Z,0
2016-02-12T02:04:45.857Z,0
2016-02-12T02:05:45.970Z,0
2016-02-12T02:06:45.942Z,0
2016-02-12T02:07:45.914Z,0
2016-02-12T02:08:45.917Z,0
2016-02-12T02:09:45.872Z,0
2016-02-12T02:10:45.828Z,0
2016-02-12T02:11:45.815Z,0
2016-02-12T02:12:45.770Z,0
2016-02-12T02:13:45.759Z,0
2016-02-12T02:14:45.716Z,0
2016-02-12T02:15:45.703Z,0
2016-02-12T02:16:45.658Z,0
2016-02-12T02:17:45.646Z,0
2016-02-12T02:18:45.601Z,0
2016-02-12T02:19:45.588Z,0
2016-02-12T02:20:45.560Z,0
2016-02-12T02:21:45.547Z,0
2016-02-12T02:22:45.487Z,0
2016-02-12T02:23:45.474Z,0
2016-02-12T02:24:45.446Z,0
2016-02-12T02:25:45.417Z,0
2016-02-12T02:26:45.388Z,0
2016-02-12T02:27:45.360Z,0
2016-02-12T02:28:45.331Z,0
2016-02-12T02:29:45.303Z,0
2016-02-12T02:30:45.274Z,0
2016-02-12T02:31:45.262Z,0
2016-02-12T02:32:45.217Z,0
2016-02-12T02:33:45.204Z,0
2016-02-12T02:34:45.160Z,0
2016-02-12T02:35:45.131Z,0
2016-02-12T02:36:45.103Z,0
2016-02-12T02:37:45.106Z,0
2016-02-12T02:38:45.045Z,0
2016-02-12T02:39:45.049Z,0
2016-02-12T02:40:44.990Z,0
2016-02-12T02:41:44.976Z,0
2016-02-12T02:42:44.936Z,0
2016-02-12T02:43:44.908Z,0
2016-02-12T02:44:44.894Z,0
2016-02-12T02:45:44.866Z,0
2016-02-12T02:46:44.838Z,0
2016-02-12T02:47:44.652Z,0
2016-02-12T02:48:44.767Z,0
2016-02-12T02:49:44.739Z,0
2016-02-12T02:50:44.710Z,0
2016-02-12T02:51:44.698Z,0
2016-02-12T02:52:44.669Z,0
2016-02-12T02:53:44.641Z,0
2016-02-12T02:54:44.596Z,0
2016-02-12T02:55:44.585Z,0
2016-02-12T02:56:44.540Z,0
2016-02-12T02:57:44.510Z,0
2016-02-12T02:58:44.498Z,0
2016-02-12T02:59:44.470Z,0
2016-02-12T03:00:44.427Z,0
2016-02-12T03:01:44.398Z,0
2016-02-12T03:02:44.370Z,0
2016-02-12T03:03:44.341Z,0
2016-02-12T03:04:44.313Z,0
2016-02-12T03:05:44.300Z,0
2016-02-12T03:06:44.272Z,0
2016-02-12T03:07:44.243Z,0
2016-02-12T03:08:44.201Z,0
2016-02-12T03:09:44.172Z,0
2016-02-12T03:10:44.143Z,0
2016-02-12T03:11:44.120Z,0
2016-02-12T03:12:43.951Z,0
2016-02-12T03:13:44.140Z,0
2016-02-12T03:14:44.035Z,0
2016-02-12T03:15:44.007Z,0
2016-02-12T03:16:43.993Z,0
2016-02-12T03:17:43.950Z,0
2016-02-12T03:18:43.938Z,0
2016-02-12T03:19:43.909Z,0
2016-02-12T03:20:43.880Z,0
2016-02-12T03:21:43.836Z,0
2016-02-12T03:22:43.824Z,0
2016-02-12T03:23:43.779Z,0
2016-02-12T03:24:43.766Z,0
2016-02-12T03:25:43.722Z,0
2016-02-12T03:26:43.709Z,0
2016-02-12T03:27:43.697Z,0
2016-02-12T03:28:43.652Z,0
2016-02-12T03:29:43.607Z,0
2016-02-12T03:30:43.595Z,0
2016-02-12T03:31:43.551Z,0
2016-02-12T03:32:43.537Z,0
2016-02-12T03:33:43.509Z,0
2016-02-12T03:34:43.482Z,0
2016-02-12T03:35:43.453Z,0
2016-02-12T03:36:43.424Z,0
2016-02-12T03:37:43.397Z,0
2016-02-12T03:38:43.369Z,0
2016-02-12T03:39:43.339Z,0
2016-02-12T03:40:43.295Z,0
2016-02-12T03:41:43.283Z,0
2016-02-12T03:42:43.254Z,0
2016-02-12T03:43:43.230Z,0
2016-02-12T03:44:43.185Z,0
2016-02-12T03:45:43.173Z,0
2016-02-12T03:46:43.143Z,0
2016-02-12T03:47:43.131Z,0
2016-02-12T03:48:43.102Z,0
2016-02-12T03:49:43.058Z,0
2016-02-12T03:50:43.028Z,0
2016-02-12T03:51:43.001Z,0
2016-02-12T03:52:42.972Z,0
2016-02-12T03:53:42.944Z,0
2016-02-12T03:54:42.915Z,0
2016-02-12T03:55:42.887Z,0
2016-02-12T03:56:42.859Z,0
2016-02-12T03:57:42.830Z,0
2016-02-12T03:58:42.801Z,0
2016-02-12T03:59:42.773Z,0
2016-02-12T04:00:42.775Z,0
2016-02-12T04:01:42.731Z,0
2016-02-12T04:02:42.686Z,0
2016-02-12T04:03:42.659Z,0
2016-02-12T04:04:42.631Z,0
2016-02-12T04:05:42.602Z,0
2016-02-12T04:06:42.589Z,0
2016-02-12T04:07:42.561Z,0
2016-02-12T04:08:42.532Z,0
2016-02-12T04:09:42.331Z,0
2016-02-12T04:10:42.459Z,0
2016-02-12T04:11:42.433Z,0
2016-02-12T04:12:42.408Z,0
2016-02-12T04:13:42.395Z,0
2016-02-12T04:14:42.367Z,0
2016-02-12T04:15:42.323Z,0
2016-02-12T04:16:42.325Z,0
2016-02-12T04:17:42.267Z,0
2016-02-12T04:18:42.237Z,0
2016-02-12T04:19:42.209Z,0
2016-02-12T04:20:42.183Z,0
2016-02-12T04:21:42.169Z,0
2016-02-12T04:22:42.141Z,0
2016-02-12T04:23:42.097Z,0
2016-02-12T04:24:42.083Z,0
2016-02-12T04:25:42.039Z,0
2016-02-12T04:26:42.027Z,0
2016-02-12T04:27:41.998Z,0
2016-02-12T04:28:41.971Z,0
2016-02-12T04:29:41.926Z,0
2016-02-12T04:30:41.915Z,0
2016-02-12T04:31:41.917Z,0
2016-02-12T04:32:41.872Z,0
2016-02-12T04:33:41.829Z,0
2016-02-12T04:34:41.800Z,0
2016-02-12T04:35:41.772Z,0
2016-02-12T04:36:41.743Z,0
2016-02-12T04:37:41.715Z,0
2016-02-12T04:38:41.687Z,0
2016-02-12T04:39:41.659Z,0
2016-02-12T04:40:41.632Z,0
2016-02-12T04:41:41.587Z,0
2016-02-12T04:42:41.576Z,0
2016-02-12T04:43:41.546Z,0
2016-02-12T04:44:41.534Z,0
2016-02-12T04:45:41.490Z,0
2016-02-12T04:46:41.463Z,0
2016-02-12T04:47:41.433Z,0
2016-02-12T04:48:41.406Z,0
2016-02-12T04:49:41.377Z,0
2016-02-12T04:50:41.349Z,0
2016-02-12T04:51:41.320Z,0
2016-02-12T04:52:41.323Z,0
2016-02-12T04:53:41.279Z,0
2016-02-12T04:54:41.250Z,0
2016-02-12T04:55:41.221Z,0
2016-02-12T04:56:41.194Z,0
2016-02-12T04:57:41.165Z,0
2016-02-12T04:58:41.135Z,0
2016-02-12T04:59:41.107Z,0
2016-02-12T05:00:41.079Z,0
2016-02-12T05:01:41.051Z,0
2016-02-12T05:02:41.022Z,0
2016-02-12T05:03:40.993Z,0
2016-02-12T05:04:40.965Z,0
2016-02-12T05:05:40.936Z,0
2016-02-12T05:06:40.909Z,0
2016-02-12T05:07:40.896Z,0
2016-02-12T05:08:40.866Z,0
2016-02-12T05:09:40.838Z,0
2016-02-12T05:10:40.076Z,0
2016-02-12T05:11:40.614Z,0
2016-02-12T05:12:40.743Z,0
2016-02-12T05:13:40.713Z,0
2016-02-12T05:14:40.685Z,0
2016-02-12T05:15:40.672Z,0
2016-02-12T05:16:40.643Z,0
2016-02-12T05:17:40.599Z,0
2016-02-12T05:18:40.571Z,0
2016-02-12T05:19:40.543Z,0
2016-02-12T05:20:40.515Z,0
2016-02-12T05:21:40.501Z,0
2016-02-12T05:22:40.474Z,0
2016-02-12T05:23:40.445Z,0
2016-02-12T05:24:40.417Z,0
2016-02-12T05:25:40.405Z,0
2016-02-12T05:26:40.360Z,0
2016-02-12T05:27:40.330Z,0
2016-02-12T05:28:40.288Z,0
2016-02-12T05:29:40.368Z,0
2016-02-12T05:30:40.355Z,0
2016-02-12T05:31:40.216Z,0
2016-02-12T05:32:40.204Z,0
2016-02-12T05:33:40.160Z,0
2016-02-12T05:34:40.132Z,0
2016-02-12T05:35:40.103Z,0
2016-02-12T05:36:40.074Z,0
2016-02-12T05:37:40.061Z,0
2016-02-12T05:38:40.018Z,0
2016-02-12T05:39:40.004Z,0
2016-02-12T05:40:39.966Z,0
2016-02-12T05:41:39.938Z,0
2016-02-12T05:42:39.909Z,0
2016-02-12T05:43:39.882Z,0
2016-02-12T05:44:39.853Z,0
2016-02-12T05:45:39.825Z,0
2016-02-12T05:46:39.812Z,0
2016-02-12T05:47:39.767Z,0
2016-02-12T05:48:39.755Z,0
2016-02-12T05:49:39.727Z,0
2016-02-12T05:50:39.683Z,0
2016-02-12T05:51:39.671Z,0
2016-02-12T05:52:39.642Z,0
2016-02-12T05:53:39.598Z,0
2016-02-12T05:54:39.569Z,0
2016-02-12T05:55:39.572Z,0
2016-02-12T05:56:39.528Z,0
2016-02-12T05:57:39.501Z,0
2016-02-12T05:58:39.457Z,0
2016-02-12T05:59:39.460Z,0
2016-02-12T06:00:39.403Z,0
2016-02-12T06:01:39.375Z,0
2016-02-12T06:02:39.362Z,0
2016-02-12T06:03:39.317Z,0
2016-02-12T06:04:39.305Z,0
2016-02-12T06:05:39.276Z,0
2016-02-12T06:06:39.248Z,0
2016-02-12T06:07:39.219Z,0
2016-02-12T06:08:39.191Z,0
2016-02-12T06:09:39.178Z,0
2016-02-12T06:10:39.137Z,0
2016-02-12T06:11:39.093Z,0
2016-02-12T06:12:39.080Z,0
2016-02-12T06:13:39.051Z,0
2016-02-12T06:14:39.023Z,0
2016-02-12T06:15:38.995Z,0
2016-02-12T06:16:38.981Z,0
2016-02-12T06:17:38.938Z,0
2016-02-12T06:18:38.910Z,4
2016-02-12T06:19:38.881Z,4
2016-02-12T06:20:38.852Z,0
2016-02-12T06:21:38.839Z,0
2016-02-12T06:22:38.812Z,4
2016-02-12T06:23:38.767Z,4
2016-02-12T06:24:38.738Z,4
2016-02-12T06:25:38.726Z,8
2016-02-12T06:26:38.697Z,4
2016-02-12T06:27:38.669Z,8
2016-02-12T06:28:38.641Z,8
2016-02-12T06:29:38.596Z,8
2016-02-12T06:30:38.583Z,8
2016-02-12T06:31:38.555Z,8
2016-02-12T06:32:38.527Z,12
2016-02-12T06:33:38.498Z,12
2016-02-12T06:34:38.471Z,16
2016-02-12T06:35:38.443Z,20
2016-02-12T06:36:38.415Z,28
2016-02-12T06:37:38.386Z,32
2016-02-12T06:38:38.373Z,36
2016-02-12T06:39:38.345Z,48
2016-02-12T06:40:38.300Z,56
2016-02-12T06:41:38.288Z,64
2016-02-12T06:42:38.243Z,72
2016-02-12T06:43:38.234Z,80
2016-02-12T06:44:38.189Z,84
2016-02-12T06:45:38.162Z,84
2016-02-12T06:46:38.132Z,92
2016-02-12T06:47:38.104Z,104
2016-02-12T06:48:38.076Z,124
2016-02-12T06:49:38.047Z,144
2016-02-12T06:50:38.034Z,168
2016-02-12T06:51:37.990Z,196
2016-02-12T06:52:37.963Z,220
2016-02-12T06:53:37.934Z,240
2016-02-12T06:54:37.905Z,264
2016-02-12T06:55:37.893Z,304
2016-02-12T06:56:37.864Z,344
2016-02-12T06:57:37.836Z,368
2016-02-12T06:58:37.791Z,396
2016-02-12T06:59:37.763Z,424
2016-02-12T07:00:37.766Z,432
2016-02-12T07:01:37.739Z,436
2016-02-12T07:02:37.694Z,440
2016-02-12T07:03:37.681Z,448
2016-02-12T07:04:37.637Z,464
2016-02-12T07:05:37.594Z,484
2016-02-12T07:06:37.581Z,500
2016-02-12T07:07:37.568Z,524
2016-02-12T07:08:37.523Z,564
2016-02-12T07:09:37.371Z,624
2016-02-12T07:10:37.467Z,692
2016-02-12T07:11:37.458Z,764
2016-02-12T07:12:37.414Z,848
2016-02-12T07:13:37.385Z,940
2016-02-12T07:14:37.358Z,1008
2016-02-12T07:15:37.329Z,1088
2016-02-12T07:16:37.299Z,1176
2016-02-12T07:17:37.272Z,1248
2016-02-12T07:18:37.243Z,1260
2016-02-12T07:19:37.215Z,1220
2016-02-12T07:20:37.185Z,1180
2016-02-12T07:21:37.157Z,1176
2016-02-12T07:22:37.144Z,1204
2016-02-12T07:23:37.100Z,1248
2016-02-12T07:24:37.087Z,1288
2016-02-12T07:25:37.059Z,1328
2016-02-12T07:26:37.029Z,1360
2016-02-12T07:27:37.002Z,1400
2016-02-12T07:28:36.973Z,1452
2016-02-12T07:29:36.929Z,1496
2016-02-12T07:30:36.915Z,1556
2016-02-12T07:31:36.887Z,1612
2016-02-12T07:32:36.859Z,1644
2016-02-12T07:33:36.830Z,1652
2016-02-12T07:34:36.802Z,1664
2016-02-12T07:35:36.773Z,1716
2016-02-12T07:36:36.744Z,1796
2016-02-12T07:37:36.716Z,1904
2016-02-12T07:38:36.688Z,2044
2016-02-12T07:39:36.690Z,2200
2016-02-12T07:40:36.647Z,2380
2016-02-12T07:41:36.604Z,2600
2016-02-12T07:42:36.574Z,2804
2016-02-12T07:43:36.546Z,2980
2016-02-12T07:44:36.518Z,3136
2016-02-12T07:45:36.505Z,3300
2016-02-12T07:46:36.477Z,3368
2016-02-12T07:47:36.449Z,3432
2016-02-12T07:48:36.420Z,3492
2016-02-12T07:49:36.391Z,3560
2016-02-12T07:50:36.426Z,3632
2016-02-12T07:51:36.335Z,3704
2016-02-12T07:52:36.305Z,3728
2016-02-12T07:53:36.293Z,3712
2016-02-12T07:54:36.265Z,3672
2016-02-12T07:55:36.222Z,3628
2016-02-12T07:56:36.192Z,3620
2016-02-12T07:57:36.164Z,3668
2016-02-12T07:58:36.136Z,3796
2016-02-12T07:59:36.107Z,3960
2016-02-12T08:00:36.110Z,4128
2016-02-12T08:01:36.081Z,4232
2016-02-12T08:02:36.037Z,4240
2016-02-12T08:03:36.010Z,4192
2016-02-12T08:04:35.982Z,4044
2016-02-12T08:05:35.953Z,3896
2016-02-12T08:06:35.925Z,3744
2016-02-12T08:07:35.912Z,3628
2016-02-12T08:08:35.884Z,3592
2016-02-12T08:09:35.870Z,3628
2016-02-12T08:10:35.826Z,3724
2016-02-12T08:11:35.798Z,3888
2016-02-12T08:12:35.770Z,4072
2016-02-12T08:13:35.744Z,4244
2016-02-12T08:14:35.716Z,4372
2016-02-12T08:15:35.688Z,4500
2016-02-12T08:16:35.675Z,4656
2016-02-12T08:17:35.631Z,4800
2016-02-12T08:18:35.602Z,4932
2016-02-12T08:19:35.574Z,5040
2016-02-12T08:20:35.561Z,5156
2016-02-12T08:21:35.518Z,5272
2016-02-12T08:22:35.506Z,5452
2016-02-12T08:23:35.480Z,5724
2016-02-12T08:24:35.452Z,6112
2016-02-12T08:25:35.438Z,6492
2016-02-12T08:26:35.395Z,6800
2016-02-12T08:27:35.397Z,7104
2016-02-12T08:28:35.269Z,7448
2016-02-12T08:29:35.323Z,7852
2016-02-12T08:30:35.295Z,8336
2016-02-12T08:31:35.262Z,8816
2016-02-12T08:32:35.234Z,9108
2016-02-12T08:33:35.205Z,9240
2016-02-12T08:34:35.193Z,9416
2016-02-12T08:35:35.164Z,9480
2016-02-12T08:36:35.120Z,9380
2016-02-12T08:37:35.092Z,9116
2016-02-12T08:38:35.078Z,8748
2016-02-12T08:39:35.050Z,8392
2016-02-12T08:40:35.037Z,8080
2016-02-12T08:41:34.997Z,7772
2016-02-12T08:42:34.969Z,7448
2016-02-12T08:43:34.941Z,7172
2016-02-12T08:44:34.960Z,6936
2016-02-12T08:45:34.885Z,6804
2016-02-12T08:46:34.904Z,6612
2016-02-12T08:47:34.843Z,6372
2016-02-12T08:48:34.816Z,6104
2016-02-12T08:49:34.789Z,5880
2016-02-12T08:50:34.760Z,5692
2016-02-12T08:51:34.731Z,5628
2016-02-12T08:52:34.718Z,5532
2016-02-12T08:53:34.690Z,5432
2016-02-12T08:54:34.661Z,5348
2016-02-12T08:55:34.648Z,5368
2016-02-12T08:56:34.620Z,5520
2016-02-12T08:57:34.575Z,5616
2016-02-12T08:58:34.548Z,5700
2016-02-12T08:59:34.520Z,5876
2016-02-12T09:00:34.506Z,6080
2016-02-12T09:01:34.493Z,6408
2016-02-12T09:02:34.450Z,6616
2016-02-12T09:03:34.420Z,6600
2016-02-12T09:04:34.392Z,6312
2016-02-12T09:05:34.369Z,5900
2016-02-12T09:06:34.340Z,5668
2016-02-12T09:07:34.327Z,5560
2016-02-12T09:08:34.314Z,5524
2016-02-12T09:09:34.270Z,5504
2016-02-12T09:10:34.241Z,5536
2016-02-12T09:11:34.213Z,5456
2016-02-12T09:12:34.203Z,5412
2016-02-12T09:13:34.158Z,5336
2016-02-12T09:14:34.177Z,5192
2016-02-12T09:15:34.103Z,5036
2016-02-12T09:16:34.074Z,4940
2016-02-12T09:17:34.045Z,4860
2016-02-12T09:18:34.032Z,4780
2016-02-12T09:19:34.020Z,4744
2016-02-12T09:20:33.976Z,4808
2016-02-12T09:21:33.932Z,4896
2016-02-12T09:22:33.935Z,5068
2016-02-12T09:23:33.890Z,5140
2016-02-12T09:24:33.864Z,5140
2016-02-12T09:25:33.836Z,5160
2016-02-12T09:26:33.822Z,5164
2016-02-12T09:27:33.779Z,5168
2016-02-12T09:28:33.767Z,5188
2016-02-12T09:29:33.734Z,5180
2016-02-12T09:30:33.694Z,5172
2016-02-12T09:31:33.652Z,5196
2016-02-12T09:32:33.690Z,5196
2016-02-12T09:33:33.576Z,5180
2016-02-12T09:34:33.520Z,5184
2016-02-12T09:35:33.519Z,5196
2016-02-12T09:36:33.502Z,5164
2016-02-12T09:37:33.452Z,5164
2016-02-12T09:38:33.403Z,5164
2016-02-12T09:39:33.387Z,5156
2016-02-12T09:40:33.715Z,5144
2016-02-12T09:41:33.311Z,5160
2016-02-12T09:42:33.298Z,5172
2016-02-12T09:43:33.267Z,5184
2016-02-12T09:44:33.238Z,5216
2016-02-12T09:45:33.194Z,5212
2016-02-12T09:46:33.226Z,5240
2016-02-12T09:47:33.135Z,5248
2016-02-12T09:48:33.137Z,5240
2016-02-12T09:49:33.092Z,5252
2016-02-12T09:50:33.064Z,5264
2016-02-12T09:51:33.082Z,5272
2016-02-12T09:52:32.853Z,5264
2016-02-12T09:53:32.996Z,5260
2016-02-12T09:54:32.952Z,5280
2016-02-12T09:55:32.924Z,5328
2016-02-12T09:56:32.896Z,5392
2016-02-12T09:57:32.867Z,5424
2016-02-12T09:58:32.869Z,5396
2016-02-12T09:59:32.809Z,5364
2016-02-12T10:00:32.797Z,5360
2016-02-12T10:01:32.768Z,5368
2016-02-12T10:02:32.740Z,5424
2016-02-12T10:03:32.709Z,5460
2016-02-12T10:04:32.696Z,5448
2016-02-12T10:05:32.653Z,5452
2016-02-12T10:06:32.655Z,5424
2016-02-12T10:07:32.596Z,5444
2016-02-12T10:08:32.849Z,5452
2016-02-12T10:09:32.570Z,5488
2016-02-12T10:10:36.731Z,5468
2016-02-12T10:11:32.500Z,5496
2016-02-12T10:12:32.471Z,5496
2016-02-12T10:13:32.431Z,5512
2016-02-12T10:14:32.419Z,5504
2016-02-12T10:15:32.389Z,5492
2016-02-12T10:16:32.377Z,5448
2016-02-12T10:17:32.348Z,5420
2016-02-12T10:18:32.321Z,5412
2016-02-12T10:19:32.276Z,5384
2016-02-12T10:20:32.264Z,5392
2016-02-12T10:21:32.219Z,5400
2016-02-12T10:22:32.206Z,5380
2016-02-12T10:23:32.303Z,5392
2016-02-12T10:24:32.150Z,5392
2016-02-12T10:25:32.121Z,5392
2016-02-12T10:26:32.092Z,5384
2016-02-12T10:27:32.113Z,5368
2016-02-12T10:28:32.037Z,5352
2016-02-12T10:29:32.008Z,5344
2016-02-12T10:30:31.996Z,5360
2016-02-12T10:31:31.951Z,5328
2016-02-12T10:32:31.938Z,5332
2016-02-12T10:33:31.910Z,5332
2016-02-12T10:34:31.896Z,5332
2016-02-12T10:35:31.853Z,5332
2016-02-12T10:36:31.825Z,5352
2016-02-12T10:37:31.797Z,5376
2016-02-12T10:38:31.770Z,5380
2016-02-12T10:39:31.741Z,5392
2016-02-12T10:40:31.728Z,5396
2016-02-12T10:41:31.700Z,5372
2016-02-12T10:42:31.656Z,5376
2016-02-12T10:43:31.632Z,5376
2016-02-12T10:44:31.619Z,5364
2016-02-12T10:45:31.590Z,5380
2016-02-12T10:46:31.561Z,5376
2016-02-12T10:47:31.555Z,5400
2016-02-12T10:48:31.495Z,5400
2016-02-12T10:49:31.481Z,5400
2016-02-12T10:50:31.454Z,5404
2016-02-12T10:51:31.425Z,5412
2016-02-12T10:52:31.397Z,5400
2016-02-12T10:53:31.368Z,5424
2016-02-12T10:54:31.355Z,5432
2016-02-12T10:55:31.326Z,5400
2016-02-12T10:56:31.283Z,5464
2016-02-12T10:57:31.269Z,5484
2016-02-12T10:58:31.241Z,5496
2016-02-12T10:59:31.056Z,5492
2016-02-12T11:00:31.183Z,5524
2016-02-12T11:01:31.155Z,5532
2016-02-12T11:02:31.127Z,5500
2016-02-12T11:03:31.097Z,5720
2016-02-12T11:04:31.087Z,5884
2016-02-12T11:05:31.058Z,5664
2016-02-12T11:06:31.013Z,5540
2016-02-12T11:07:30.984Z,5548
2016-02-12T11:08:30.971Z,5448
2016-02-12T11:09:30.943Z,5296
2016-02-12T11:10:30.914Z,5352
2016-02-12T11:11:30.902Z,5328
2016-02-12T11:12:30.888Z,5356
2016-02-12T11:13:30.846Z,5388
2016-02-12T11:14:30.820Z,5412
2016-02-12T11:15:30.791Z,5400
2016-02-12T11:16:30.763Z,5404
2016-02-12T11:17:30.750Z,5384
2016-02-12T11:18:30.706Z,5408
2016-02-12T11:19:30.677Z,5428
2016-02-12T11:20:30.649Z,5428
2016-02-12T11:21:30.636Z,5424
2016-02-12T11:22:30.608Z,5424
2016-02-12T11:23:30.580Z,5436
2016-02-12T11:24:30.551Z,5456
2016-02-12T11:25:30.523Z,5476
2016-02-12T11:26:30.494Z,5460
2016-02-12T11:27:30.465Z,5484
2016-02-12T11:28:30.453Z,5640
2016-02-12T11:29:35.397Z,5580
2016-02-12T11:30:30.650Z,5692
2016-02-12T11:31:30.372Z,6672
2016-02-12T11:32:30.343Z,6676
2016-02-12T11:33:30.299Z,6060
2016-02-12T11:34:30.130Z,6220
2016-02-12T11:35:30.273Z,5872
2016-02-12T11:36:30.244Z,5660
2016-02-12T11:37:30.216Z,5780
2016-02-12T11:38:30.188Z,5628
2016-02-12T11:39:30.146Z,5516
2016-02-12T11:40:30.133Z,5480
2016-02-12T11:41:30.105Z,5460
2016-02-12T11:42:30.092Z,5432
2016-02-12T11:43:30.047Z,5400
2016-02-12T11:44:30.023Z,5456
2016-02-12T11:45:29.995Z,5416
2016-02-12T11:46:29.966Z,5388
2016-02-12T11:47:29.953Z,5392
2016-02-12T11:48:29.925Z,5392
2016-02-12T11:49:29.927Z,5400
2016-02-12T11:50:29.869Z,5396
2016-02-12T11:51:29.841Z,5408
2016-02-12T11:52:29.811Z,5400
2016-02-12T11:53:29.783Z,5408
2016-02-12T11:54:29.771Z,5436
2016-02-12T11:55:29.727Z,5448
2016-02-12T11:56:29.731Z,5452
2016-02-12T11:57:29.687Z,5436
2016-02-12T11:58:29.659Z,5436
2016-02-12T11:59:29.631Z,5444
2016-02-12T12:00:29.603Z,5440
2016-02-12T12:01:29.575Z,5476
2016-02-12T12:02:29.562Z,5504
2016-02-12T12:03:29.533Z,5512
2016-02-12T12:04:29.505Z,5276
2016-02-12T12:05:29.477Z,5716
2016-02-12T12:06:29.448Z,5720
2016-02-12T12:07:29.420Z,5468
2016-02-12T12:08:29.393Z,5248
2016-02-12T12:09:29.364Z,5648
2016-02-12T12:10:29.351Z,5236
2016-02-12T12:11:29.322Z,5916
2016-02-12T12:12:29.293Z,5748
2016-02-12T12:13:29.265Z,5828
2016-02-12T12:14:29.237Z,5240
2016-02-12T12:15:29.208Z,5892
2016-02-12T12:16:29.198Z,7800
2016-02-12T12:17:29.153Z,10348
2016-02-12T12:18:29.156Z,11152
2016-02-12T12:19:29.112Z,10188
2016-02-12T12:20:29.099Z,9680
2016-02-12T12:21:29.055Z,10556
2016-02-12T12:22:29.023Z,10488
2016-02-12T12:23:29.011Z,9880
2016-02-12T12:24:28.982Z,8812
2016-02-12T12:25:28.970Z,8008
2016-02-12T12:26:28.941Z,8572
2016-02-12T12:27:28.928Z,10248
2016-02-12T12:28:28.900Z,11096
2016-02-12T12:29:28.918Z,11148
2016-02-12T12:30:28.826Z,10396
2016-02-12T12:31:28.799Z,10272
2016-02-12T12:32:28.771Z,10724
2016-02-12T12:33:28.742Z,11932
2016-02-12T12:34:28.730Z,11992
2016-02-12T12:35:28.732Z,13208
2016-02-12T12:36:28.673Z,12684
2016-02-12T12:37:28.660Z,12836
2016-02-12T12:38:28.632Z,13920
2016-02-12T12:39:28.602Z,15372
2016-02-12T12:40:28.590Z,15524
2016-02-12T12:41:28.565Z,15452
2016-02-12T12:42:28.537Z,14584
2016-02-12T12:43:28.509Z,12460
2016-02-12T12:44:28.481Z,10508
2016-02-12T12:45:28.452Z,9436
2016-02-12T12:46:28.440Z,10028
2016-02-12T12:47:28.521Z,10024
2016-02-12T12:48:28.414Z,10892
2016-02-12T12:49:28.370Z,12016
2016-02-12T12:50:28.357Z,13472
2016-02-12T12:51:28.313Z,14120
2016-02-12T12:52:28.285Z,13484
2016-02-12T12:53:28.272Z,12676
2016-02-12T12:54:28.244Z,13324
2016-02-12T12:55:28.230Z,12984
2016-02-12T12:56:28.202Z,12852
2016-02-12T12:57:28.174Z,12820
2016-02-12T12:58:28.160Z,13064
2016-02-12T12:59:28.133Z,12500
2016-02-12T13:00:28.106Z,11060
2016-02-12T13:01:28.077Z,10080
2016-02-12T13:02:28.049Z,9816
2016-02-12T13:03:28.051Z,10120
2016-02-12T13:04:28.023Z,11544
2016-02-12T13:05:27.995Z,12016
2016-02-12T13:06:27.966Z,11716
2016-02-12T13:07:27.937Z,11308
2016-02-12T13:08:27.925Z,10904
2016-02-12T13:09:27.913Z,10484
2016-02-12T13:10:27.900Z,10700
2016-02-12T13:11:27.966Z,10416
2016-02-12T13:12:27.844Z,10264
2016-02-12T13:13:27.816Z,10368
2016-02-12T13:14:27.786Z,10224
2016-02-12T13:15:27.759Z,10340
2016-02-12T13:16:27.746Z,10444
2016-02-12T13:17:27.717Z,11124
2016-02-12T13:18:27.705Z,11908
2016-02-12T13:19:27.676Z,12200
2016-02-12T13:20:27.648Z,12284
2016-02-12T13:21:27.620Z,12344
2016-02-12T13:22:27.592Z,12268
2016-02-12T13:23:27.562Z,12244
2016-02-12T13:24:27.550Z,12288
2016-02-12T13:25:27.537Z,12164
2016-02-12T13:26:27.509Z,12508
2016-02-12T13:27:27.480Z,12816
2016-02-12T13:28:27.453Z,12896
2016-02-12T13:29:30.456Z,13068
2016-02-12T13:30:27.411Z,12772
2016-02-12T13:31:27.383Z,12428
2016-02-12T13:32:27.369Z,12580
2016-02-12T13:33:27.357Z,12868
2016-02-12T13:34:27.329Z,12448
2016-02-12T13:35:27.299Z,11068
2016-02-12T13:36:27.287Z,10416
2016-02-12T13:37:27.275Z,10652
2016-02-12T13:38:27.230Z,9508
2016-02-12T13:39:27.218Z,9336
2016-02-12T13:40:27.189Z,10000
2016-02-12T13:41:27.177Z,10952
2016-02-12T13:42:27.164Z,11772
2016-02-12T13:43:27.104Z,12740
2016-02-12T13:44:27.107Z,13060
2016-02-12T13:45:27.078Z,14104
2016-02-12T13:46:27.052Z,14696
2016-02-12T13:47:27.039Z,15144
2016-02-12T13:48:26.996Z,14936
2016-02-12T13:49:26.966Z,14496
2016-02-12T13:50:26.969Z,14768
2016-02-12T13:51:26.924Z,13824
2016-02-12T13:52:26.912Z,12884
2016-02-12T13:53:26.884Z,11408
2016-02-12T13:54:26.872Z,10040
2016-02-12T13:55:26.844Z,9240
2016-02-12T13:56:26.815Z,8316